Time;durP1;ratioP1;P1;durP2;ratioP2;P2;SDS_P1;SDS_P2;PMS_P1;PMS_P2;Temp;Humidity;BMP_temperature;BMP_pressure;BME280_temperature;BME280_humidity;BME280_pressure;Samples;Min_cycle;Max_cycle;Signal;HPM_P1;HPM_P2
2021/06/10 00:14:43;;;;;;;15.48;10.10;;;17.20;56.80;;;;;;4857993;29;20088;-87
2021/06/10 00:17:11;;;;;;;17.45;10.60;;;17.10;56.80;;;;;;4848216;29;20035;-87
2021/06/10 00:19:40;;;;;;;18.45;10.65;;;17.00;56.80;;;;;;4941526;28;20030;-86
2021/06/10 00:22:06;;;;;;;16.52;9.57;;;17.00;57.00;;;;;;4939469;28;20030;-88
2021/06/10 00:24:32;;;;;;;15.57;9.68;;;16.90;57.00;;;;;;4971543;28;20027;-88
2021/06/10 00:26:57;;;;;;;16.25;9.48;;;16.90;57.10;;;;;;4956615;28;20395;-88
2021/06/10 00:29:23;;;;;;;16.15;9.73;;;16.90;57.20;;;;;;4963300;28;20093;-88
2021/06/10 00:31:49;;;;;;;16.10;10.00;;;16.90;57.20;;;;;;4958414;28;20400;-90
2021/06/10 00:34:16;;;;;;;17.10;9.93;;;16.90;57.30;;;;;;4939966;29;20038;-91
2021/06/10 00:36:42;;;;;;;15.88;9.65;;;16.90;57.30;;;;;;4954600;28;20023;-91
2021/06/10 00:39:08;;;;;;;17.17;10.35;;;16.80;57.40;;;;;;4956625;28;20023;-90
2021/06/10 00:41:36;;;;;;;16.58;10.50;;;16.80;57.40;;;;;;4959253;28;20030;-90
2021/06/10 00:44:05;;;;;;;16.25;10.63;;;16.70;57.60;;;;;;4957859;28;20155;-90
2021/06/10 00:46:32;;;;;;;17.70;11.05;;;16.70;57.70;;;;;;4951130;28;20046;-89
2021/06/10 00:48:57;;;;;;;18.70;10.73;;;16.60;57.70;;;;;;4955834;28;20031;-89
2021/06/10 00:51:23;;;;;;;17.20;9.75;;;16.60;57.80;;;;;;4955649;28;20031;-89
2021/06/10 00:53:49;;;;;;;17.77;10.15;;;16.60;57.90;;;;;;4954747;28;20408;-89
2021/06/10 00:56:15;;;;;;;19.08;11.07;;;16.50;57.80;;;;;;4938562;28;20397;-89
2021/06/10 00:58:41;;;;;;;18.75;11.35;;;16.50;58.00;;;;;;4970655;28;20452;-89
2021/06/10 01:01:08;;;;;;;19.05;11.00;;;16.50;58.00;;;;;;4939004;28;20111;-89
2021/06/10 01:03:35;;;;;;;20.25;12.00;;;16.50;58.10;;;;;;4938448;29;20110;-89
2021/06/10 01:06:11;;;;;;;19.88;11.68;;;16.40;58.10;;;;;;4955602;28;20436;-89
2021/06/10 01:08:59;;;;;;;18.90;11.18;;;16.40;58.30;;;;;;4938311;28;20043;-88
2021/06/10 01:11:43;;;;;;;20.50;11.55;;;16.30;58.30;;;;;;4955723;28;20043;-88
2021/06/10 01:14:33;;;;;;;19.10;11.18;;;16.30;58.30;;;;;;4967256;28;20097;-88
2021/06/10 01:17:00;;;;;;;18.63;11.15;;;16.20;58.60;;;;;;4952555;28;20476;-88
2021/06/10 01:19:41;;;;;;;16.23;10.25;;;16.20;58.50;;;;;;4955407;28;20034;-87
2021/06/10 01:22:25;;;;;;;17.95;10.75;;;16.10;58.60;;;;;;4957484;28;20024;-88
2021/06/10 01:25:28;;;;;;;17.92;10.65;;;16.10;59.30;;;;;;4955688;28;20023;-88
2021/06/10 01:27:58;;;;;;;18.58;10.68;;;16.10;58.90;;;;;;4969126;28;20114;-88
2021/06/10 01:30:32;;;;;;;17.70;11.38;;;16.10;58.90;;;;;;4955634;28;20539;-88
2021/06/10 01:33:07;;;;;;;18.13;11.23;;;16.10;58.90;;;;;;4956973;28;20066;-89
2021/06/10 01:35:36;;;;;;;19.85;11.25;;;16.00;58.90;;;;;;4957343;28;20357;-88
2021/06/10 01:38:05;;;;;;;22.08;12.38;;;16.10;59.30;;;;;;4956510;28;20019;-89
2021/06/10 01:40:31;;;;;;;19.02;11.70;;;16.00;59.40;;;;;;4970675;28;20027;-88
2021/06/10 01:42:59;;;;;;;21.63;12.75;;;16.10;59.50;;;;;;4952750;28;20156;-88
2021/06/10 01:45:26;;;;;;;21.65;12.60;;;16.20;59.80;;;;;;4955780;28;20046;-89
2021/06/10 01:47:53;;;;;;;20.15;12.05;;;16.20;59.80;;;;;;4955501;28;20029;-88
2021/06/10 01:50:21;;;;;;;20.80;12.15;;;16.30;59.70;;;;;;4954338;28;20035;-89
2021/06/10 01:52:49;;;;;;;19.00;11.43;;;16.20;59.70;;;;;;4955642;28;20027;-89
2021/06/10 01:55:19;;;;;;;25.33;12.93;;;16.30;59.90;;;;;;4955544;28;20023;-89
2021/06/10 01:57:46;;;;;;;20.90;11.60;;;16.30;59.90;;;;;;4960295;28;20051;-89
2021/06/10 02:00:14;;;;;;;22.58;12.25;;;16.40;60.00;;;;;;4954249;28;20035;-89
2021/06/10 02:02:41;;;;;;;21.40;11.40;;;16.30;60.00;;;;;;4957499;28;20073;-89
2021/06/10 02:05:08;;;;;;;21.35;11.80;;;16.40;60.00;;;;;;4958046;28;20038;-89
2021/06/10 02:07:42;;;;;;;21.95;12.00;;;16.40;60.10;;;;;;4958969;28;20023;-89
2021/06/10 02:10:14;;;;;;;25.37;13.73;;;16.30;60.20;;;;;;4941501;28;20110;-89
2021/06/10 02:12:45;;;;;;;22.45;12.60;;;16.40;60.30;;;;;;4954567;28;20106;-88
2021/06/10 02:15:12;;;;;;;22.60;12.70;;;16.40;60.40;;;;;;4957120;28;20023;-89
2021/06/10 02:17:39;;;;;;;25.58;13.70;;;16.40;60.50;;;;;;4957638;28;20371;-89
2021/06/10 02:20:07;;;;;;;29.10;13.75;;;16.30;60.60;;;;;;4958621;28;20072;-90
2021/06/10 02:22:35;;;;;;;23.77;14.30;;;16.50;60.90;;;;;;4958604;28;20023;-90
2021/06/10 02:25:02;;;;;;;26.40;14.52;;;16.60;61.10;;;;;;4958469;28;20023;-90
2021/06/10 02:27:28;;;;;;;27.92;14.68;;;16.60;60.90;;;;;;4943237;28;20031;-88
2021/06/10 02:29:53;;;;;;;29.70;15.57;;;16.70;61.20;;;;;;4958555;28;20395;-88
2021/06/10 02:32:19;;;;;;;24.80;14.73;;;16.70;61.30;;;;;;4958192;28;20018;-88
2021/06/10 02:34:45;;;;;;;25.95;15.25;;;16.70;61.30;;;;;;4958449;28;20408;-89
2021/06/10 02:37:12;;;;;;;24.27;15.30;;;16.80;61.40;;;;;;4941189;29;20491;-90
2021/06/10 02:39:40;;;;;;;22.15;14.85;;;16.80;61.50;;;;;;4941056;28;20035;-88
2021/06/10 02:42:07;;;;;;;21.05;14.23;;;16.90;61.60;;;;;;4957903;28;20027;-88
2021/06/10 02:44:34;;;;;;;19.90;13.10;;;16.90;61.60;;;;;;4962578;28;20358;-88
2021/06/10 02:47:04;;;;;;;18.90;12.88;;;16.90;61.50;;;;;;4973336;28;20020;-90
2021/06/10 02:49:32;;;;;;;19.13;13.13;;;16.90;61.60;;;;;;4962708;28;20046;-89
2021/06/10 02:51:59;;;;;;;19.75;12.10;;;17.00;61.80;;;;;;4940917;28;20357;-89
2021/06/10 02:54:26;;;;;;;18.13;12.23;;;17.10;61.90;;;;;;4959776;28;20035;-89
2021/06/10 02:56:52;;;;;;;18.23;11.85;;;17.10;62.50;;;;;;4954624;28;20501;-89
2021/06/10 02:59:19;;;;;;;17.80;12.10;;;17.10;61.90;;;;;;4940964;28;20547;-88
2021/06/10 03:01:46;;;;;;;19.17;11.60;;;17.10;61.90;;;;;;4957995;28;20026;-88
2021/06/10 03:04:14;;;;;;;18.65;12.93;;;17.20;62.20;;;;;;4956615;28;20039;-88
2021/06/10 03:06:40;;;;;;;17.17;12.18;;;17.20;62.20;;;;;;4953430;28;20071;-88
2021/06/10 03:09:06;;;;;;;18.95;11.93;;;17.20;62.10;;;;;;4957632;28;20043;-88
2021/06/10 03:11:32;;;;;;;23.23;12.30;;;17.20;62.20;;;;;;4957777;28;20495;-88
2021/06/10 03:14:00;;;;;;;17.38;11.20;;;17.20;62.20;;;;;;4940475;28;20495;-88
2021/06/10 03:16:26;;;;;;;19.40;11.75;;;17.20;62.20;;;;;;4945168;28;20023;-89
2021/06/10 03:18:54;;;;;;;20.20;12.05;;;17.30;62.30;;;;;;4957798;28;20027;-88
2021/06/10 03:21:21;;;;;;;21.50;12.48;;;17.30;62.30;;;;;;4957782;28;20482;-88
2021/06/10 03:23:47;;;;;;;23.88;12.65;;;17.20;62.40;;;;;;4957355;28;20019;-89
2021/06/10 03:26:13;;;;;;;32.55;12.45;;;17.30;62.40;;;;;;4942026;28;20035;-88
2021/06/10 03:28:41;;;;;;;21.40;13.38;;;17.30;62.50;;;;;;4956362;28;20473;-88
2021/06/10 03:31:07;;;;;;;25.92;13.88;;;17.30;62.80;;;;;;4957363;28;20015;-90
2021/06/10 03:33:32;;;;;;;21.95;13.23;;;17.20;62.60;;;;;;4957667;28;20027;-90
2021/06/10 03:35:58;;;;;;;28.63;13.75;;;17.30;62.60;;;;;;4939965;29;20027;-90
2021/06/10 03:38:25;;;;;;;27.63;13.45;;;17.40;62.90;;;;;;4957439;28;20042;-90
2021/06/10 03:40:53;;;;;;;25.55;13.10;;;17.30;62.80;;;;;;4942592;29;20031;-90
2021/06/10 03:43:19;;;;;;;27.33;13.65;;;17.30;63.10;;;;;;4971787;28;20047;-89
2021/06/10 03:45:45;;;;;;;29.45;15.15;;;17.40;63.00;;;;;;4971985;28;20031;-89
2021/06/10 03:48:11;;;;;;;36.08;15.20;;;17.40;63.10;;;;;;4958589;28;20496;-89
2021/06/10 03:50:37;;;;;;;40.03;19.08;;;17.40;63.20;;;;;;4957345;28;20023;-87
2021/06/10 03:53:05;;;;;;;28.85;16.58;;;17.50;63.50;;;;;;4956855;28;20039;-88
2021/06/10 03:55:30;;;;;;;31.77;16.60;;;17.50;63.50;;;;;;4971941;28;20105;-88
2021/06/10 03:57:56;;;;;;;23.60;14.05;;;17.50;63.60;;;;;;4955398;28;20452;-88
2021/06/10 04:00:22;;;;;;;27.90;13.60;;;17.60;63.70;;;;;;4956862;28;20023;-87
2021/06/10 04:02:50;;;;;;;27.58;14.07;;;17.60;63.80;;;;;;4957853;28;20051;-87
2021/06/10 04:05:16;;;;;;;25.15;13.25;;;17.70;63.90;;;;;;4958185;28;20031;-88
2021/06/10 04:07:41;;;;;;;24.42;13.98;;;17.70;63.90;;;;;;4956267;28;20042;-87
2021/06/10 04:10:07;;;;;;;24.17;13.93;;;17.70;63.90;;;;;;4939537;29;20400;-88
2021/06/10 04:12:33;;;;;;;23.40;13.75;;;17.70;63.90;;;;;;4956923;28;20196;-88
2021/06/10 04:14:59;;;;;;;25.17;13.95;;;17.80;64.00;;;;;;4957986;28;20122;-87
2021/06/10 04:17:27;;;;;;;24.83;13.80;;;17.80;64.20;;;;;;4956614;28;20102;-87
2021/06/10 04:19:54;;;;;;;25.75;15.88;;;17.90;64.30;;;;;;4956632;28;20031;-86
2021/06/10 04:22:19;;;;;;;26.70;15.48;;;17.90;64.30;;;;;;4958332;28;20015;-87
2021/06/10 04:24:45;;;;;;;24.45;14.32;;;18.00;64.20;;;;;;4938728;28;20081;-87
2021/06/10 04:27:12;;;;;;;28.27;16.23;;;17.90;64.10;;;;;;4956525;28;20031;-88
2021/06/10 04:29:38;;;;;;;30.77;14.95;;;17.90;64.10;;;;;;4971530;28;20019;-89
2021/06/10 04:32:04;;;;;;;31.15;16.27;;;17.90;64.00;;;;;;4967016;28;20033;-87
2021/06/10 04:34:29;;;;;;;28.88;13.65;;;17.90;64.40;;;;;;4955216;28;20038;-87
2021/06/10 04:36:56;;;;;;;29.15;14.80;;;18.00;64.30;;;;;;4957070;28;20027;-87
2021/06/10 04:39:22;;;;;;;33.08;18.75;;;18.00;64.20;;;;;;4959312;28;20027;-90
2021/06/10 04:41:47;;;;;;;35.88;17.25;;;18.00;64.70;;;;;;4943288;28;20040;-90
2021/06/10 04:44:13;;;;;;;34.05;16.23;;;18.10;64.90;;;;;;4956144;28;20030;-88
2021/06/10 04:46:39;;;;;;;28.55;14.68;;;18.10;65.00;;;;;;4956559;28;20031;-89
2021/06/10 04:49:05;;;;;;;41.60;15.40;;;18.20;65.10;;;;;;4944317;28;20477;-91
2021/06/10 04:51:31;;;;;;;19.85;12.52;;;18.30;64.90;;;;;;4939263;28;20023;-91
2021/06/10 04:53:57;;;;;;;27.80;12.25;;;18.30;64.60;;;;;;4957689;28;20391;-91
2021/06/10 04:56:23;;;;;;;22.63;13.73;;;18.30;64.60;;;;;;4956111;28;20527;-91
2021/06/10 04:58:49;;;;;;;21.30;12.63;;;18.30;64.70;;;;;;4971110;28;20027;-88
2021/06/10 05:01:15;;;;;;;18.25;11.68;;;18.30;64.70;;;;;;4960623;28;20019;-87
2021/06/10 05:03:41;;;;;;;26.85;12.48;;;18.30;64.90;;;;;;4938854;28;20027;-88
2021/06/10 05:06:06;;;;;;;19.30;11.50;;;18.40;65.30;;;;;;4955439;28;20070;-88
2021/06/10 05:08:33;;;;;;;20.60;12.70;;;18.40;65.10;;;;;;4955589;28;20035;-88
2021/06/10 05:10:58;;;;;;;20.60;12.23;;;18.50;65.70;;;;;;4970726;28;20039;-87
2021/06/10 05:13:24;;;;;;;20.08;11.77;;;18.70;65.90;;;;;;4955500;28;20039;-87
2021/06/10 05:15:50;;;;;;;20.17;10.98;;;18.80;65.70;;;;;;4939916;28;20400;-88
2021/06/10 05:21:17;;;;;;;22.05;12.70;;;18.90;65.50;;;;;;4952655;28;20039;-86
2021/06/10 05:23:46;;;;;;;21.85;12.90;;;18.90;65.50;;;;;;4940188;28;20055;-87
2021/06/10 05:26:24;;;;;;;20.85;11.75;;;19.00;65.80;;;;;;4965080;28;20546;-87
2021/06/10 05:28:53;;;;;;;22.27;13.13;;;19.10;66.00;;;;;;4941396;28;20081;-88
2021/06/10 05:31:20;;;;;;;22.05;12.98;;;19.20;65.60;;;;;;4973732;28;20089;-88
2021/06/10 05:33:51;;;;;;;21.80;12.48;;;19.20;66.00;;;;;;4972686;28;20070;-88
2021/06/10 05:36:27;;;;;;;22.10;12.13;;;19.30;66.40;;;;;;4952322;28;20019;-87
2021/06/10 05:38:56;;;;;;;22.27;11.85;;;19.50;67.00;;;;;;4961103;28;20051;-88
2021/06/10 05:41:48;;;;;;;;;;;;;;;;;;;;;
2021/06/10 05:44:44;;;;;;;19.33;11.50;;;19.60;65.90;;;;;;4960420;28;20034;-87
2021/06/10 05:47:10;;;;;;;21.55;12.55;;;19.70;65.80;;;;;;4927079;28;20023;-87
2021/06/10 05:49:39;;;;;;;19.33;11.52;;;19.80;66.00;;;;;;4941987;28;20107;-90
2021/06/10 05:52:30;;;;;;;21.65;14.18;;;19.90;66.10;;;;;;4941910;28;20035;-87
2021/06/10 05:54:58;;;;;;;20.27;11.57;;;19.90;66.00;;;;;;4958090;28;20126;-84
2021/06/10 05:57:30;;;;;;;18.30;11.75;;;19.90;65.80;;;;;;4963117;28;20019;-86
2021/06/10 06:03:30;;;;;;;20.80;12.50;;;20.10;66.50;;;;;;4940349;28;20408;-85
2021/06/10 06:05:58;;;;;;;20.00;12.23;;;20.30;66.30;;;;;;4958517;28;20023;-85
2021/06/10 06:08:35;;;;;;;20.73;12.52;;;20.40;66.30;;;;;;4937674;29;22562;-88
2021/06/10 06:11:02;;;;;;;20.90;12.48;;;20.40;66.00;;;;;;4956641;28;20038;-88
2021/06/10 06:14:05;;;;;;;19.15;11.90;;;20.40;66.30;;;;;;4957344;28;20069;-87
2021/06/10 06:16:31;;;;;;;18.83;11.52;;;20.50;66.20;;;;;;4963935;28;20047;-86
2021/06/10 06:18:58;;;;;;;16.17;10.77;;;20.50;66.10;;;;;;4959545;28;20069;-89
2021/06/10 06:21:24;;;;;;;16.20;10.90;;;20.60;65.90;;;;;;4957309;28;20031;-86
2021/06/10 06:30:34;;;;;;;19.15;12.10;;;20.80;66.40;;;;;;4957861;28;20038;-84
2021/06/10 06:32:59;;;;;;;17.85;11.82;;;20.80;66.30;;;;;;4941325;28;20027;-84
2021/06/10 06:35:27;;;;;;;16.35;11.18;;;21.00;66.40;;;;;;4957265;28;20023;-84
2021/06/10 06:37:55;;;;;;;21.33;12.55;;;21.20;66.60;;;;;;4962720;28;20023;-84
2021/06/10 06:40:26;;;;;;;19.00;11.05;;;21.30;66.70;;;;;;4941419;28;20052;-83
2021/06/10 06:42:52;;;;;;;18.77;11.80;;;21.40;66.20;;;;;;4975531;28;20027;-84
2021/06/10 06:45:20;;;;;;;19.73;13.07;;;21.40;65.90;;;;;;4941006;28;20038;-84
2021/06/10 06:47:48;;;;;;;18.85;12.82;;;21.50;66.40;;;;;;4940258;28;20510;-84
2021/06/10 06:50:16;;;;;;;19.50;11.68;;;21.60;66.40;;;;;;4958101;28;20059;-84
2021/06/10 06:52:45;;;;;;;19.42;12.55;;;21.70;66.60;;;;;;4957990;28;20017;-84
2021/06/10 06:55:11;;;;;;;21.98;11.93;;;21.90;66.60;;;;;;4940757;28;20023;-84
2021/06/10 06:57:37;;;;;;;19.98;13.52;;;22.10;67.20;;;;;;4957801;28;20018;-85
2021/06/10 07:00:06;;;;;;;19.40;12.35;;;22.30;67.10;;;;;;4957954;28;20066;-85
2021/06/10 07:02:32;;;;;;;19.73;13.65;;;22.50;67.40;;;;;;4972551;28;20078;-84
2021/06/10 07:04:57;;;;;;;20.02;13.07;;;22.80;67.80;;;;;;4957955;28;20034;-84
2021/06/10 07:07:23;;;;;;;19.58;13.25;;;23.10;67.60;;;;;;4956740;28;20500;-84
2021/06/10 07:09:49;;;;;;;19.88;12.88;;;23.30;67.00;;;;;;4956478;28;20099;-84
2021/06/10 07:12:14;;;;;;;18.50;12.25;;;23.50;67.00;;;;;;4956238;28;20443;-84
2021/06/10 07:14:40;;;;;;;57.65;16.67;;;23.40;65.50;;;;;;4955077;28;20707;-85
2021/06/10 07:17:09;;;;;;;21.35;13.88;;;23.40;65.80;;;;;;4938692;28;20059;-85
2021/06/10 07:19:38;;;;;;;18.33;12.73;;;23.40;66.00;;;;;;4956286;28;20391;-84
2021/06/10 07:22:03;;;;;;;17.02;11.50;;;23.50;66.70;;;;;;4938599;28;20497;-84
2021/06/10 07:24:29;;;;;;;18.33;13.05;;;23.60;66.00;;;;;;4954699;28;20051;-85
2021/06/10 07:26:57;;;;;;;25.33;12.98;;;23.70;65.90;;;;;;4938672;29;20024;-85
2021/06/10 07:29:23;;;;;;;23.02;14.27;;;23.60;65.00;;;;;;4955846;28;20023;-85
2021/06/10 07:31:49;;;;;;;18.33;12.55;;;23.50;65.00;;;;;;4955818;28;20151;-86
2021/06/10 07:34:15;;;;;;;17.35;12.05;;;23.40;65.10;;;;;;4938227;28;20043;-86
2021/06/10 07:36:46;;;;;;;19.45;13.07;;;23.40;65.60;;;;;;4955967;28;20046;-86
2021/06/10 07:39:12;;;;;;;20.92;13.73;;;23.30;64.90;;;;;;4954800;28;20031;-87
2021/06/10 07:41:38;;;;;;;17.17;11.48;;;23.20;64.80;;;;;;4956370;28;20031;-86
2021/06/10 07:44:05;;;;;;;301.55;38.42;;;23.10;65.10;;;;;;4955511;28;20089;-84
2021/06/10 07:46:30;;;;;;;26.02;12.50;;;23.10;65.20;;;;;;4955270;28;20049;-85
2021/06/10 07:48:56;;;;;;;16.85;11.52;;;23.10;65.40;;;;;;4955781;28;20479;-85
2021/06/10 07:51:22;;;;;;;21.83;11.57;;;23.00;65.40;;;;;;4958386;28;20033;-85
2021/06/10 07:53:48;;;;;;;17.75;11.98;;;23.00;65.30;;;;;;4955579;28;20035;-85
2021/06/10 07:56:13;;;;;;;55.03;15.27;;;23.00;65.40;;;;;;4939393;29;20038;-85
2021/06/10 07:58:40;;;;;;;18.42;12.30;;;22.90;65.00;;;;;;4938088;28;20026;-86
2021/06/10 08:01:05;;;;;;;18.25;11.90;;;22.80;65.10;;;;;;4954215;28;20026;-92
2021/06/10 08:03:31;;;;;;;16.83;11.32;;;22.70;65.10;;;;;;4955571;28;20027;-87
2021/06/10 08:05:58;;;;;;;17.02;11.27;;;22.70;65.70;;;;;;4958889;28;20575;-87
2021/06/10 08:08:24;;;;;;;20.08;13.10;;;22.80;65.80;;;;;;4939729;28;20099;-87
2021/06/10 08:10:51;;;;;;;16.90;12.38;;;22.80;65.80;;;;;;4955016;28;20476;-85
2021/06/10 08:13:18;;;;;;;16.00;10.63;;;22.90;66.10;;;;;;4955335;28;20365;-86
2021/06/10 08:15:45;;;;;;;25.42;13.02;;;22.90;65.90;;;;;;4950736;28;20113;-84
2021/06/10 08:18:11;;;;;;;18.95;11.95;;;22.80;65.80;;;;;;4937742;29;20051;-86
2021/06/10 08:20:38;;;;;;;39.90;13.52;;;22.90;66.00;;;;;;4953892;28;20472;-86
2021/06/10 08:23:04;;;;;;;22.98;12.45;;;23.00;66.60;;;;;;4937974;29;20587;-86
2021/06/10 08:25:32;;;;;;;17.63;11.25;;;23.20;66.60;;;;;;4955157;28;20404;-85
2021/06/10 08:28:04;;;;;;;18.45;12.55;;;23.20;66.20;;;;;;4955847;28;20030;-86
2021/06/10 08:30:39;;;;;;;16.13;11.25;;;23.30;66.40;;;;;;4954828;28;20027;-86
2021/06/10 08:33:08;;;;;;;17.65;11.93;;;23.30;66.60;;;;;;4938043;29;20129;-86
2021/06/10 08:35:44;;;;;;;16.52;10.90;;;23.40;66.30;;;;;;4955853;28;20064;-87
2021/06/10 08:38:09;;;;;;;16.67;10.52;;;23.40;66.10;;;;;;4955861;28;20023;-87
2021/06/10 08:40:39;;;;;;;15.07;10.15;;;23.40;66.00;;;;;;4942004;28;20559;-87
2021/06/10 08:43:07;;;;;;;15.15;9.50;;;23.40;65.80;;;;;;4959387;28;20030;-88
2021/06/10 08:45:34;;;;;;;18.10;9.18;;;23.40;65.90;;;;;;4938068;28;20067;-92
2021/06/10 08:48:00;;;;;;;14.98;10.32;;;23.50;66.10;;;;;;4938170;29;20369;-87
2021/06/10 08:50:27;;;;;;;14.10;9.65;;;23.60;66.40;;;;;;4953935;28;20019;-87
2021/06/10 08:52:57;;;;;;;12.70;8.13;;;23.70;66.70;;;;;;4954692;28;20032;-87
2021/06/10 08:55:24;;;;;;;12.18;7.63;;;23.90;66.70;;;;;;4956061;28;20106;-86
2021/06/10 08:57:51;;;;;;;12.73;7.28;;;24.10;66.30;;;;;;4955981;28;20081;-87
2021/06/10 09:00:19;;;;;;;14.52;7.40;;;24.20;66.30;;;;;;4955758;28;20090;-90
2021/06/10 09:03:04;;;;;;;14.27;7.45;;;24.30;66.50;;;;;;4958970;28;20445;-88
2021/06/10 09:05:30;;;;;;;9.68;5.72;;;24.50;66.00;;;;;;4954955;28;20011;-88
2021/06/10 09:08:05;;;;;;;11.63;6.55;;;24.50;65.70;;;;;;4941125;28;20022;-89
2021/06/10 09:10:34;;;;;;;11.30;6.22;;;24.60;66.00;;;;;;4969656;28;20058;-89
2021/06/10 09:13:03;;;;;;;12.50;6.80;;;24.80;66.00;;;;;;4969387;28;20023;-89
2021/06/10 09:15:38;;;;;;;10.45;6.47;;;24.90;65.60;;;;;;4937275;28;20027;-90
2021/06/10 09:18:04;;;;;;;9.82;5.70;;;25.00;65.60;;;;;;4921605;29;20023;-89
2021/06/10 09:20:46;;;;;;;9.75;5.45;;;25.10;65.30;;;;;;4938870;28;20042;-88
2021/06/10 09:23:16;;;;;;;14.63;5.55;;;25.30;64.90;;;;;;4953444;28;20031;-87
2021/06/10 09:25:44;;;;;;;11.32;4.75;;;25.40;65.20;;;;;;4937976;29;20035;-88
2021/06/10 09:28:10;;;;;;;9.30;4.57;;;25.60;65.10;;;;;;4954763;28;20027;-87
2021/06/10 09:30:41;;;;;;;8.98;4.88;;;25.70;65.40;;;;;;4952855;28;20026;-88
2021/06/10 09:33:12;;;;;;;10.23;4.70;;;25.80;64.60;;;;;;4954339;28;20019;-88
2021/06/10 09:35:41;;;;;;;9.48;4.63;;;25.90;64.40;;;;;;4936820;29;20031;-88
2021/06/10 09:38:09;;;;;;;9.63;5.07;;;25.90;64.00;;;;;;4958126;28;20507;-88
2021/06/10 09:40:36;;;;;;;25.27;5.95;;;26.00;64.20;;;;;;4955628;28;20038;-89
2021/06/10 09:43:02;;;;;;;7.30;3.80;;;26.20;64.20;;;;;;4954081;28;20016;-88
2021/06/10 09:45:29;;;;;;;9.48;4.93;;;26.30;64.20;;;;;;4937004;29;20030;-88
2021/06/10 09:48:04;;;;;;;68.07;18.23;;;26.40;63.80;;;;;;4954480;28;20035;-89
2021/06/10 09:50:43;;;;;;;16.67;7.75;;;26.60;63.70;;;;;;4954397;28;20078;-89
2021/06/10 09:53:12;;;;;;;14.77;6.72;;;26.70;63.40;;;;;;4954239;28;20027;-88
2021/06/10 09:55:53;;;;;;;17.27;7.80;;;26.90;63.80;;;;;;4954224;28;20027;-88
2021/06/10 09:58:21;;;;;;;9.63;5.57;;;27.20;63.70;;;;;;4953874;28;20019;-88
2021/06/10 10:00:49;;;;;;;13.18;5.55;;;27.40;63.30;;;;;;4954537;28;20042;-89
2021/06/10 10:03:30;;;;;;;9.13;5.35;;;27.70;63.50;;;;;;4952414;28;20036;-88
2021/06/10 10:06:06;;;;;;;9.32;5.03;;;28.00;63.40;;;;;;4953642;28;20380;-88
2021/06/10 10:08:33;;;;;;;10.60;5.07;;;28.20;63.20;;;;;;4955064;28;20521;-88
2021/06/10 10:11:01;;;;;;;10.35;5.63;;;28.50;62.50;;;;;;4954134;28;20019;-89
2021/06/10 10:13:29;;;;;;;10.43;4.90;;;28.50;62.00;;;;;;4954084;28;20031;-88
2021/06/10 10:15:58;;;;;;;8.65;5.10;;;28.40;60.90;;;;;;4953970;28;20038;-90
2021/06/10 10:18:23;;;;;;;9.55;5.35;;;28.40;61.00;;;;;;4952591;28;20443;-90
2021/06/10 10:20:50;;;;;;;9.18;4.80;;;28.30;60.70;;;;;;4962851;28;20043;-88
2021/06/10 10:23:15;;;;;;;9.00;4.88;;;28.30;61.10;;;;;;4962955;28;20027;-90
2021/06/10 10:25:42;;;;;;;14.77;5.32;;;28.50;60.90;;;;;;4965683;28;20028;-90
2021/06/10 10:28:14;;;;;;;60.05;10.23;;;28.50;60.30;;;;;;4967208;29;20476;-91
2021/06/10 10:30:44;;;;;;;9.90;5.28;;;28.40;60.10;;;;;;4966755;28;20027;-92
2021/06/10 10:33:42;;;;;;;8.20;4.38;;;28.50;60.60;;;;;;4966776;28;20035;-86
2021/06/10 10:36:08;;;;;;;15.55;5.25;;;28.60;60.10;;;;;;4950624;28;20043;-90
2021/06/10 10:38:40;;;;;;;9.15;3.88;;;28.50;60.20;;;;;;4949001;29;20099;-88
2021/06/10 10:41:21;;;;;;;116.82;14.20;;;28.60;60.30;;;;;;4970050;28;20047;-89
2021/06/10 10:43:47;;;;;;;8.77;4.30;;;28.70;59.80;;;;;;4981452;28;20034;-89
2021/06/10 10:46:18;;;;;;;47.45;7.68;;;28.70;59.80;;;;;;4947278;29;20483;-89
2021/06/10 10:48:58;;;;;;;8.02;3.78;;;28.80;59.60;;;;;;4966733;28;20039;-90
2021/06/10 10:51:36;;;;;;;7.13;3.75;;;28.80;59.40;;;;;;4966784;28;20034;-90
2021/06/10 10:54:32;;;;;;;8.95;3.80;;;28.80;59.30;;;;;;4972028;28;20035;-89
2021/06/10 10:56:58;;;;;;;6.55;3.45;;;29.00;59.70;;;;;;4967294;28;20023;-89
2021/06/10 10:59:23;;;;;;;6.00;3.03;;;29.30;59.80;;;;;;4945227;29;20034;-89
2021/06/10 11:02:01;;;;;;;6.90;3.47;;;29.50;59.10;;;;;;4964231;28;20042;-90
2021/06/10 11:04:46;;;;;;;6.30;3.30;;;29.50;58.50;;;;;;4965074;28;20026;-88
2021/06/10 11:07:32;;;;;;;6.35;3.35;;;29.40;58.00;;;;;;4959288;28;20026;-88
2021/06/10 11:09:58;;;;;;;6.15;3.10;;;29.20;57.30;;;;;;4946833;28;20096;-88
2021/06/10 11:12:44;;;;;;;6.15;2.92;;;29.10;57.50;;;;;;4939270;28;20027;-89
2021/06/10 11:15:16;;;;;;;99.18;12.82;;;29.10;58.20;;;;;;4956700;28;20377;-89
2021/06/10 11:17:46;;;;;;;14.48;3.92;;;29.40;59.40;;;;;;4956327;28;20034;-90
2021/06/10 11:20:16;;;;;;;6.82;3.40;;;30.00;60.30;;;;;;4939229;29;20023;-90
2021/06/10 11:22:50;;;;;;;7.53;3.40;;;30.90;61.60;;;;;;4939024;28;20031;-89
2021/06/10 11:25:22;;;;;;;6.63;3.28;;;31.80;62.50;;;;;;4939263;28;20460;-89
2021/06/10 11:27:49;;;;;;;6.13;3.17;;;32.70;62.90;;;;;;4956297;28;20063;-88
2021/06/10 11:30:26;;;;;;;6.40;3.20;;;33.60;62.90;;;;;;4956272;28;20035;-88
2021/06/10 11:33:01;;;;;;;6.45;3.30;;;34.50;62.30;;;;;;4956647;28;20019;-87
2021/06/10 11:35:34;;;;;;;6.30;3.25;;;35.30;60.40;;;;;;4956285;28;20366;-89
2021/06/10 11:38:03;;;;;;;5.90;3.15;;;36.20;59.50;;;;;;4955896;28;20099;-89
2021/06/10 11:40:29;;;;;;;7.10;3.35;;;37.00;58.90;;;;;;4942452;28;20530;-89
2021/06/10 11:42:55;;;;;;;6.30;3.30;;;37.70;58.20;;;;;;4955777;28;20032;-89
2021/06/10 11:45:26;;;;;;;5.10;3.03;;;38.50;58.10;;;;;;4938854;28;20149;-89
2021/06/10 11:47:53;;;;;;;5.60;3.13;;;39.30;57.20;;;;;;4951036;28;20094;-89
2021/06/10 11:50:28;;;;;;;10.32;3.05;;;39.90;55.20;;;;;;4938083;28;20042;-89
2021/06/10 11:52:57;;;;;;;5.57;2.92;;;40.80;54.40;;;;;;4938319;28;20041;-90
2021/06/10 11:55:26;;;;;;;5.65;3.15;;;41.20;53.50;;;;;;4938329;29;20024;-92
2021/06/10 11:57:54;;;;;;;5.47;3.15;;;41.70;52.20;;;;;;4938424;28;20031;-89
2021/06/10 12:00:29;;;;;;;4.68;2.90;;;41.90;51.10;;;;;;4956008;28;20349;-92
2021/06/10 12:02:56;;;;;;;6.07;3.17;;;42.20;51.60;;;;;;4938738;29;20396;-93
2021/06/10 12:05:22;;;;;;;5.22;3.10;;;42.70;50.80;;;;;;4923126;28;20024;-94
2021/06/10 12:07:49;;;;;;;5.05;2.95;;;43.00;50.50;;;;;;4941555;28;20058;-93
2021/06/10 12:10:21;;;;;;;5.70;2.75;;;43.20;47.10;;;;;;4963589;28;20098;-94
2021/06/10 12:12:52;;;;;;;4.80;2.90;;;42.00;43.90;;;;;;4944427;28;20035;-94
2021/06/10 12:15:18;;;;;;;6.20;3.03;;;40.60;43.70;;;;;;4953517;28;20090;-94
2021/06/10 12:17:58;;;;;;;6.28;3.08;;;39.50;43.10;;;;;;4940377;28;20492;-93
2021/06/10 12:20:33;;;;;;;6.80;3.30;;;38.70;44.30;;;;;;4973709;28;20023;-92
2021/06/10 12:23:00;;;;;;;5.85;3.20;;;39.50;49.10;;;;;;4935334;29;20019;-93
2021/06/10 12:25:28;;;;;;;5.57;3.45;;;40.50;49.00;;;;;;4939953;28;20030;-93
2021/06/10 12:27:57;;;;;;;5.63;3.35;;;41.40;49.00;;;;;;4939770;28;20027;-94
2021/06/10 12:30:27;;;;;;;5.47;3.25;;;42.20;48.20;;;;;;4956870;28;20042;-93
2021/06/10 12:33:10;;;;;;;4.88;3.10;;;41.90;44.80;;;;;;4942051;28;20022;-95
2021/06/10 12:35:37;;;;;;;5.13;3.05;;;42.60;48.60;;;;;;4951250;28;20031;-93
2021/06/10 12:38:02;;;;;;;5.25;3.00;;;42.40;42.90;;;;;;4959307;28;20511;-95
2021/06/10 12:40:36;;;;;;;5.90;3.10;;;41.40;41.10;;;;;;4976668;28;20063;-92
2021/06/10 12:43:13;;;;;;;6.90;3.40;;;40.70;42.50;;;;;;4942921;28;20015;-95
2021/06/10 12:45:40;;;;;;;4.93;3.10;;;41.40;45.30;;;;;;4939675;28;20031;-92
2021/06/10 12:48:33;;;;;;;5.13;3.10;;;41.70;42.90;;;;;;4940091;28;20023;-94
2021/06/10 12:51:22;;;;;;;6.15;2.80;;;41.50;41.80;;;;;;4938853;28;20041;-93
2021/06/10 12:54:23;;;;;;;7.43;3.10;;;39.70;37.30;;;;;;4945844;28;20034;-88
2021/06/10 12:56:51;;;;;;;7.78;3.30;;;38.10;37.40;;;;;;4951795;28;20032;-90
2021/06/10 12:59:35;;;;;;;4.88;3.05;;;37.30;41.90;;;;;;4960282;28;20114;-93
2021/06/10 13:02:02;;;;;;;5.20;3.10;;;38.80;45.90;;;;;;4962254;28;20023;-91
2021/06/10 13:04:33;;;;;;;5.65;3.15;;;40.20;42.80;;;;;;4938921;28;20483;-89
2021/06/10 13:06:59;;;;;;;4.75;3.00;;;40.30;42.40;;;;;;4956834;28;20034;-92
2021/06/10 13:09:25;;;;;;;6.20;3.55;;;40.20;40.40;;;;;;4939041;29;20194;-91
2021/06/10 13:12:13;;;;;;;5.38;3.17;;;40.70;43.00;;;;;;4939235;28;20030;-90